sensor_id;sensor_type;location;lat;lon;timestamp;temperature;humidity
46364;DHT22;32071;49.036;9.344;2023-03-29T00:00:10;7.00;99.90
46364;DHT22;32071;49.036;9.344;2023-03-29T00:02:39;7.10;99.90
46364;DHT22;32071;49.036;9.344;2023-03-29T00:05:06;7.10;99.90
46364;DHT22;32071;49.036;9.344;2023-03-29T00:07:32;7.10;99.90
46364;DHT22;32071;49.036;9.344;2023-03-29T00:09:58;7.10;99.90
46364;DHT22;32071;49.036;9.344;2023-03-29T00:12:24;7.10;99.90
46364;DHT22;32071;49.036;9.344;2023-03-29T00:14:50;7.10;99.90
46364;DHT22;32071;49.036;9.344;2023-03-29T00:17:16;7.10;99.90
46364;DHT22;32071;49.036;9.344;2023-03-29T00:19:43;7.10;99.90
46364;DHT22;32071;49.036;9.344;2023-03-29T00:22:09;7.10;99.90
46364;DHT22;32071;49.036;9.344;2023-03-29T00:24:34;7.10;99.90
46364;DHT22;32071;49.036;9.344;2023-03-29T00:27:00;7.00;99.90
46364;DHT22;32071;49.036;9.344;2023-03-29T00:29:26;7.10;99.90
46364;DHT22;32071;49.036;9.344;2023-03-29T00:31:51;7.00;99.90
46364;DHT22;32071;49.036;9.344;2023-03-29T00:34:22;7.00;99.90
46364;DHT22;32071;49.036;9.344;2023-03-29T00:36:48;7.00;99.90
46364;DHT22;32071;49.036;9.344;2023-03-29T00:39:16;7.00;99.90
46364;DHT22;32071;49.036;9.344;2023-03-29T00:41:44;7.00;99.90
46364;DHT22;32071;49.036;9.344;2023-03-29T00:47:54;7.00;99.90
46364;DHT22;32071;49.036;9.344;2023-03-29T00:53:04;6.90;99.90
46364;DHT22;32071;49.036;9.344;2023-03-29T00:55:36;6.90;99.90
46364;DHT22;32071;49.036;9.344;2023-03-29T00:58:06;6.90;99.90
46364;DHT22;32071;49.036;9.344;2023-03-29T01:00:36;6.80;99.90
46364;DHT22;32071;49.036;9.344;2023-03-29T01:03:07;6.80;99.90
46364;DHT22;32071;49.036;9.344;2023-03-29T01:05:43;6.80;99.90
46364;DHT22;32071;49.036;9.344;2023-03-29T01:08:15;6.80;99.90
46364;DHT22;32071;49.036;9.344;2023-03-29T01:10:54;6.80;99.90
46364;DHT22;32071;49.036;9.344;2023-03-29T01:13:55;6.80;99.90
46364;DHT22;32071;49.036;9.344;2023-03-29T01:16:20;6.80;99.90
46364;DHT22;32071;49.036;9.344;2023-03-29T01:18:46;6.70;99.90
46364;DHT22;32071;49.036;9.344;2023-03-29T01:21:20;6.70;99.90
46364;DHT22;32071;49.036;9.344;2023-03-29T01:32:26;6.40;99.90
46364;DHT22;32071;49.036;9.344;2023-03-29T01:35:07;6.40;99.90
46364;DHT22;32071;49.036;9.344;2023-03-29T01:37:42;6.40;99.90
46364;DHT22;32071;49.036;9.344;2023-03-29T01:40:10;6.40;99.90
46364;DHT22;32071;49.036;9.344;2023-03-29T01:45:24;6.30;99.90
46364;DHT22;32071;49.036;9.344;2023-03-29T01:53:23;6.40;99.90
46364;DHT22;32071;49.036;9.344;2023-03-29T01:55:54;6.40;99.90
46364;DHT22;32071;49.036;9.344;2023-03-29T01:58:28;6.30;99.90
46364;DHT22;32071;49.036;9.344;2023-03-29T02:00:58;6.30;99.90
46364;DHT22;32071;49.036;9.344;2023-03-29T02:03:27;6.30;99.90
46364;DHT22;32071;49.036;9.344;2023-03-29T02:05:56;6.30;99.90
46364;DHT22;32071;49.036;9.344;2023-03-29T02:08:23;6.30;99.90
46364;DHT22;32071;49.036;9.344;2023-03-29T02:10:49;6.30;99.90
46364;DHT22;32071;49.036;9.344;2023-03-29T02:13:16;6.20;99.90
46364;DHT22;32071;49.036;9.344;2023-03-29T02:15:44;6.20;99.90
46364;DHT22;32071;49.036;9.344;2023-03-29T02:18:10;6.20;99.90
46364;DHT22;32071;49.036;9.344;2023-03-29T02:20:39;6.20;99.90
46364;DHT22;32071;49.036;9.344;2023-03-29T02:25:43;6.20;99.90
46364;DHT22;32071;49.036;9.344;2023-03-29T02:28:10;6.20;99.90
46364;DHT22;32071;49.036;9.344;2023-03-29T02:31:15;6.20;99.90
46364;DHT22;32071;49.036;9.344;2023-03-29T02:33:57;6.20;99.90
46364;DHT22;32071;49.036;9.344;2023-03-29T02:39:07;6.20;99.90
46364;DHT22;32071;49.036;9.344;2023-03-29T02:41:35;6.20;99.90
46364;DHT22;32071;49.036;9.344;2023-03-29T02:44:04;6.20;99.90
46364;DHT22;32071;49.036;9.344;2023-03-29T02:46:32;6.20;99.90
46364;DHT22;32071;49.036;9.344;2023-03-29T02:48:58;6.20;99.90
46364;DHT22;32071;49.036;9.344;2023-03-29T02:51:28;6.20;99.90
46364;DHT22;32071;49.036;9.344;2023-03-29T02:54:00;6.20;99.90
46364;DHT22;32071;49.036;9.344;2023-03-29T02:56:27;6.10;99.90
46364;DHT22;32071;49.036;9.344;2023-03-29T02:58:53;6.20;99.90
46364;DHT22;32071;49.036;9.344;2023-03-29T03:01:19;6.10;99.90
46364;DHT22;32071;49.036;9.344;2023-03-29T03:03:45;6.20;99.90
46364;DHT22;32071;49.036;9.344;2023-03-29T03:06:11;6.10;99.90
46364;DHT22;32071;49.036;9.344;2023-03-29T03:08:37;6.20;99.90
46364;DHT22;32071;49.036;9.344;2023-03-29T03:11:03;6.20;99.90
46364;DHT22;32071;49.036;9.344;2023-03-29T03:13:29;6.10;99.90
46364;DHT22;32071;49.036;9.344;2023-03-29T03:15:55;6.10;99.90
46364;DHT22;32071;49.036;9.344;2023-03-29T03:18:20;6.10;99.90
46364;DHT22;32071;49.036;9.344;2023-03-29T03:20:59;6.10;99.90
46364;DHT22;32071;49.036;9.344;2023-03-29T03:23:26;6.10;99.90
46364;DHT22;32071;49.036;9.344;2023-03-29T03:25:53;6.20;99.90
46364;DHT22;32071;49.036;9.344;2023-03-29T03:28:19;6.20;99.90
46364;DHT22;32071;49.036;9.344;2023-03-29T03:30:46;6.20;99.90
46364;DHT22;32071;49.036;9.344;2023-03-29T03:33:12;6.20;99.90
46364;DHT22;32071;49.036;9.344;2023-03-29T03:35:38;6.20;99.90
46364;DHT22;32071;49.036;9.344;2023-03-29T03:38:03;6.20;99.90
46364;DHT22;32071;49.036;9.344;2023-03-29T03:40:30;6.30;99.90
46364;DHT22;32071;49.036;9.344;2023-03-29T03:42:57;6.30;99.90
46364;DHT22;32071;49.036;9.344;2023-03-29T03:45:22;6.40;99.90
46364;DHT22;32071;49.036;9.344;2023-03-29T03:47:49;6.40;99.90
46364;DHT22;32071;49.036;9.344;2023-03-29T03:50:15;6.40;99.90
46364;DHT22;32071;49.036;9.344;2023-03-29T03:52:41;6.40;99.90
46364;DHT22;32071;49.036;9.344;2023-03-29T03:55:07;6.40;99.90
46364;DHT22;32071;49.036;9.344;2023-03-29T03:57:33;6.40;99.90
46364;DHT22;32071;49.036;9.344;2023-03-29T04:00:02;6.40;99.90
46364;DHT22;32071;49.036;9.344;2023-03-29T04:02:34;6.50;99.90
46364;DHT22;32071;49.036;9.344;2023-03-29T04:05:00;6.50;99.90
46364;DHT22;32071;49.036;9.344;2023-03-29T04:07:27;6.50;99.90
46364;DHT22;32071;49.036;9.344;2023-03-29T04:09:53;6.50;99.90
46364;DHT22;32071;49.036;9.344;2023-03-29T04:12:19;6.50;99.90
46364;DHT22;32071;49.036;9.344;2023-03-29T04:14:45;6.50;99.90
46364;DHT22;32071;49.036;9.344;2023-03-29T04:17:11;6.50;99.90
46364;DHT22;32071;49.036;9.344;2023-03-29T04:19:37;6.60;99.90
46364;DHT22;32071;49.036;9.344;2023-03-29T04:22:02;6.60;99.90
46364;DHT22;32071;49.036;9.344;2023-03-29T04:24:28;6.60;99.90
46364;DHT22;32071;49.036;9.344;2023-03-29T04:26:54;6.60;99.90
46364;DHT22;32071;49.036;9.344;2023-03-29T04:29:19;6.60;99.90
46364;DHT22;32071;49.036;9.344;2023-03-29T04:31:45;6.60;99.90
46364;DHT22;32071;49.036;9.344;2023-03-29T04:34:11;6.60;99.90
46364;DHT22;32071;49.036;9.344;2023-03-29T04:36:36;6.60;99.90
46364;DHT22;32071;49.036;9.344;2023-03-29T04:39:03;6.60;99.90
46364;DHT22;32071;49.036;9.344;2023-03-29T04:41:28;6.60;99.90
46364;DHT22;32071;49.036;9.344;2023-03-29T04:43:54;6.60;99.90
46364;DHT22;32071;49.036;9.344;2023-03-29T04:46:20;6.50;99.90
46364;DHT22;32071;49.036;9.344;2023-03-29T04:48:46;6.50;99.90
46364;DHT22;32071;49.036;9.344;2023-03-29T04:51:12;6.40;99.90
46364;DHT22;32071;49.036;9.344;2023-03-29T04:53:37;6.40;99.90
46364;DHT22;32071;49.036;9.344;2023-03-29T04:56:03;6.30;99.90
46364;DHT22;32071;49.036;9.344;2023-03-29T04:58:29;6.40;99.90
46364;DHT22;32071;49.036;9.344;2023-03-29T05:00:55;6.40;99.90
46364;DHT22;32071;49.036;9.344;2023-03-29T05:03:22;6.30;99.90
46364;DHT22;32071;49.036;9.344;2023-03-29T05:05:48;6.30;99.90
46364;DHT22;32071;49.036;9.344;2023-03-29T05:08:15;6.30;99.90
46364;DHT22;32071;49.036;9.344;2023-03-29T05:10:41;6.20;99.90
46364;DHT22;32071;49.036;9.344;2023-03-29T05:13:10;6.20;99.90
46364;DHT22;32071;49.036;9.344;2023-03-29T05:15:35;6.30;99.90
46364;DHT22;32071;49.036;9.344;2023-03-29T05:18:01;6.30;99.90
46364;DHT22;32071;49.036;9.344;2023-03-29T05:20:27;6.30;99.90
46364;DHT22;32071;49.036;9.344;2023-03-29T05:22:54;6.30;99.90
46364;DHT22;32071;49.036;9.344;2023-03-29T05:25:20;6.40;99.90
46364;DHT22;32071;49.036;9.344;2023-03-29T05:27:46;6.40;99.90
46364;DHT22;32071;49.036;9.344;2023-03-29T05:30:13;6.40;99.90
46364;DHT22;32071;49.036;9.344;2023-03-29T05:32:42;6.50;99.90
46364;DHT22;32071;49.036;9.344;2023-03-29T05:35:08;6.50;99.90
46364;DHT22;32071;49.036;9.344;2023-03-29T05:37:35;6.50;99.90
46364;DHT22;32071;49.036;9.344;2023-03-29T05:40:01;6.60;99.90
46364;DHT22;32071;49.036;9.344;2023-03-29T05:42:34;6.50;99.90
46364;DHT22;32071;49.036;9.344;2023-03-29T05:45:01;6.50;99.90
46364;DHT22;32071;49.036;9.344;2023-03-29T05:47:26;6.50;99.90
46364;DHT22;32071;49.036;9.344;2023-03-29T05:49:52;6.50;99.90
46364;DHT22;32071;49.036;9.344;2023-03-29T05:52:18;6.50;99.90
46364;DHT22;32071;49.036;9.344;2023-03-29T05:54:44;6.60;99.90
46364;DHT22;32071;49.036;9.344;2023-03-29T05:57:09;6.70;99.90
46364;DHT22;32071;49.036;9.344;2023-03-29T05:59:35;6.70;99.90
46364;DHT22;32071;49.036;9.344;2023-03-29T06:02:01;6.80;99.90
46364;DHT22;32071;49.036;9.344;2023-03-29T06:04:30;6.80;99.90
46364;DHT22;32071;49.036;9.344;2023-03-29T06:06:56;6.80;99.90
46364;DHT22;32071;49.036;9.344;2023-03-29T06:09:21;6.90;99.90
46364;DHT22;32071;49.036;9.344;2023-03-29T06:11:47;6.90;99.90
46364;DHT22;32071;49.036;9.344;2023-03-29T06:14:13;7.00;99.90
46364;DHT22;32071;49.036;9.344;2023-03-29T06:16:39;7.00;99.90
46364;DHT22;32071;49.036;9.344;2023-03-29T06:19:05;7.00;99.90
46364;DHT22;32071;49.036;9.344;2023-03-29T06:21:31;7.00;99.90
46364;DHT22;32071;49.036;9.344;2023-03-29T06:23:58;7.10;99.90
46364;DHT22;32071;49.036;9.344;2023-03-29T06:26:24;7.10;99.90
46364;DHT22;32071;49.036;9.344;2023-03-29T06:28:52;7.10;99.90
46364;DHT22;32071;49.036;9.344;2023-03-29T06:31:17;7.10;99.90
46364;DHT22;32071;49.036;9.344;2023-03-29T06:33:44;7.20;99.90
46364;DHT22;32071;49.036;9.344;2023-03-29T06:36:10;7.20;99.90
46364;DHT22;32071;49.036;9.344;2023-03-29T06:38:36;7.30;99.90
46364;DHT22;32071;49.036;9.344;2023-03-29T06:41:03;7.30;99.90
46364;DHT22;32071;49.036;9.344;2023-03-29T06:43:29;7.30;99.90
46364;DHT22;32071;49.036;9.344;2023-03-29T06:45:56;7.40;99.90
46364;DHT22;32071;49.036;9.344;2023-03-29T06:48:21;7.40;99.90
46364;DHT22;32071;49.036;9.344;2023-03-29T06:50:48;7.40;99.90
46364;DHT22;32071;49.036;9.344;2023-03-29T06:53:13;7.50;99.90
46364;DHT22;32071;49.036;9.344;2023-03-29T06:55:40;7.50;99.90
46364;DHT22;32071;49.036;9.344;2023-03-29T06:58:05;7.60;99.90
46364;DHT22;32071;49.036;9.344;2023-03-29T07:00:33;7.70;99.90
46364;DHT22;32071;49.036;9.344;2023-03-29T07:03:07;7.80;99.90
46364;DHT22;32071;49.036;9.344;2023-03-29T07:05:35;7.90;99.90
46364;DHT22;32071;49.036;9.344;2023-03-29T07:08:01;8.10;99.90
46364;DHT22;32071;49.036;9.344;2023-03-29T07:10:32;8.20;99.90
46364;DHT22;32071;49.036;9.344;2023-03-29T07:13:06;8.30;99.90
46364;DHT22;32071;49.036;9.344;2023-03-29T07:15:33;8.40;99.90
46364;DHT22;32071;49.036;9.344;2023-03-29T07:17:59;8.40;99.90
46364;DHT22;32071;49.036;9.344;2023-03-29T07:20:26;8.50;99.90
46364;DHT22;32071;49.036;9.344;2023-03-29T07:22:52;8.50;99.90
46364;DHT22;32071;49.036;9.344;2023-03-29T07:25:20;8.50;99.90
46364;DHT22;32071;49.036;9.344;2023-03-29T07:27:46;8.50;99.90
46364;DHT22;32071;49.036;9.344;2023-03-29T07:30:15;8.70;99.90
46364;DHT22;32071;49.036;9.344;2023-03-29T07:32:42;8.70;99.90
46364;DHT22;32071;49.036;9.344;2023-03-29T07:35:09;8.80;99.90
46364;DHT22;32071;49.036;9.344;2023-03-29T07:37:36;8.90;99.90
46364;DHT22;32071;49.036;9.344;2023-03-29T07:40:05;8.90;99.90
46364;DHT22;32071;49.036;9.344;2023-03-29T07:42:34;8.90;99.90
46364;DHT22;32071;49.036;9.344;2023-03-29T07:45:02;9.00;99.90
46364;DHT22;32071;49.036;9.344;2023-03-29T07:47:28;9.00;99.90
46364;DHT22;32071;49.036;9.344;2023-03-29T07:49:54;9.00;99.90
46364;DHT22;32071;49.036;9.344;2023-03-29T07:52:20;9.00;99.90
46364;DHT22;32071;49.036;9.344;2023-03-29T07:54:46;9.10;99.90
46364;DHT22;32071;49.036;9.344;2023-03-29T07:57:12;9.10;99.90
46364;DHT22;32071;49.036;9.344;2023-03-29T07:59:37;9.20;99.90
46364;DHT22;32071;49.036;9.344;2023-03-29T08:02:03;9.20;99.90
46364;DHT22;32071;49.036;9.344;2023-03-29T08:04:28;9.10;99.90
46364;DHT22;32071;49.036;9.344;2023-03-29T08:06:54;9.10;99.90
46364;DHT22;32071;49.036;9.344;2023-03-29T08:09:20;9.20;99.90
46364;DHT22;32071;49.036;9.344;2023-03-29T08:11:46;9.30;99.90
46364;DHT22;32071;49.036;9.344;2023-03-29T08:14:12;9.30;99.90
46364;DHT22;32071;49.036;9.344;2023-03-29T08:16:37;9.40;99.90
46364;DHT22;32071;49.036;9.344;2023-03-29T08:19:03;9.50;99.90
46364;DHT22;32071;49.036;9.344;2023-03-29T08:21:28;9.70;99.90
46364;DHT22;32071;49.036;9.344;2023-03-29T08:23:54;9.70;99.90
46364;DHT22;32071;49.036;9.344;2023-03-29T08:26:20;9.90;99.90
46364;DHT22;32071;49.036;9.344;2023-03-29T08:28:46;10.00;99.90
46364;DHT22;32071;49.036;9.344;2023-03-29T08:31:12;10.10;99.90
46364;DHT22;32071;49.036;9.344;2023-03-29T08:33:37;10.20;99.90
46364;DHT22;32071;49.036;9.344;2023-03-29T08:36:03;10.20;99.90
46364;DHT22;32071;49.036;9.344;2023-03-29T08:38:29;10.30;99.90
46364;DHT22;32071;49.036;9.344;2023-03-29T08:40:55;10.50;99.90
46364;DHT22;32071;49.036;9.344;2023-03-29T08:46:10;10.50;99.90
46364;DHT22;32071;49.036;9.344;2023-03-29T08:48:40;10.60;99.90
46364;DHT22;32071;49.036;9.344;2023-03-29T08:51:24;10.70;99.90
46364;DHT22;32071;49.036;9.344;2023-03-29T08:54:00;10.70;99.90
46364;DHT22;32071;49.036;9.344;2023-03-29T08:56:31;10.70;99.90
46364;DHT22;32071;49.036;9.344;2023-03-29T08:58:58;10.70;99.90
46364;DHT22;32071;49.036;9.344;2023-03-29T09:01:29;10.80;99.90
46364;DHT22;32071;49.036;9.344;2023-03-29T09:04:05;10.70;99.90
46364;DHT22;32071;49.036;9.344;2023-03-29T09:06:33;10.80;99.90
46364;DHT22;32071;49.036;9.344;2023-03-29T09:08:59;10.80;99.90
46364;DHT22;32071;49.036;9.344;2023-03-29T09:11:59;10.90;99.90
46364;DHT22;32071;49.036;9.344;2023-03-29T09:22:57;10.80;99.90
46364;DHT22;32071;49.036;9.344;2023-03-29T09:30:56;11.20;99.90
46364;DHT22;32071;49.036;9.344;2023-03-29T09:33:25;11.30;99.90
46364;DHT22;32071;49.036;9.344;2023-03-29T09:35:59;11.30;99.90
46364;DHT22;32071;49.036;9.344;2023-03-29T09:38:29;11.50;99.90
46364;DHT22;32071;49.036;9.344;2023-03-29T09:44:02;12.10;99.90
46364;DHT22;32071;49.036;9.344;2023-03-29T09:46:38;12.30;99.90
46364;DHT22;32071;49.036;9.344;2023-03-29T09:49:09;12.50;99.90
46364;DHT22;32071;49.036;9.344;2023-03-29T09:51:37;12.70;99.90
46364;DHT22;32071;49.036;9.344;2023-03-29T09:54:04;12.80;99.90
46364;DHT22;32071;49.036;9.344;2023-03-29T09:56:30;13.00;99.90
46364;DHT22;32071;49.036;9.344;2023-03-29T09:58:56;13.00;99.90
46364;DHT22;32071;49.036;9.344;2023-03-29T10:01:21;13.10;99.90
46364;DHT22;32071;49.036;9.344;2023-03-29T10:03:52;13.30;99.90
46364;DHT22;32071;49.036;9.344;2023-03-29T10:06:19;13.40;99.90
46364;DHT22;32071;49.036;9.344;2023-03-29T10:08:55;13.50;99.90
46364;DHT22;32071;49.036;9.344;2023-03-29T10:11:31;13.70;99.90
46364;DHT22;32071;49.036;9.344;2023-03-29T10:14:02;14.00;99.90
46364;DHT22;32071;49.036;9.344;2023-03-29T10:16:34;14.10;99.90
46364;DHT22;32071;49.036;9.344;2023-03-29T10:19:26;14.00;99.10
46364;DHT22;32071;49.036;9.344;2023-03-29T10:21:53;14.10;99.90
46364;DHT22;32071;49.036;9.344;2023-03-29T10:24:24;14.20;99.90
46364;DHT22;32071;49.036;9.344;2023-03-29T10:26:52;14.30;99.60
46364;DHT22;32071;49.036;9.344;2023-03-29T10:29:21;14.40;99.90
46364;DHT22;32071;49.036;9.344;2023-03-29T10:31:47;14.40;99.50
46364;DHT22;32071;49.036;9.344;2023-03-29T10:34:14;14.40;99.90
46364;DHT22;32071;49.036;9.344;2023-03-29T10:36:43;14.60;99.80
46364;DHT22;32071;49.036;9.344;2023-03-29T10:39:13;14.90;98.40
46364;DHT22;32071;49.036;9.344;2023-03-29T10:41:39;14.90;96.90
46364;DHT22;32071;49.036;9.344;2023-03-29T10:44:05;14.90;94.60
46364;DHT22;32071;49.036;9.344;2023-03-29T10:46:39;14.80;94.10
46364;DHT22;32071;49.036;9.344;2023-03-29T10:49:16;14.70;94.30
46364;DHT22;32071;49.036;9.344;2023-03-29T10:51:46;14.70;95.00
46364;DHT22;32071;49.036;9.344;2023-03-29T10:54:15;14.70;95.30
46364;DHT22;32071;49.036;9.344;2023-03-29T10:56:56;14.70;96.10
46364;DHT22;32071;49.036;9.344;2023-03-29T11:07:42;14.60;94.50
46364;DHT22;32071;49.036;9.344;2023-03-29T11:10:38;14.60;94.80
46364;DHT22;32071;49.036;9.344;2023-03-29T11:13:20;14.70;94.10
46364;DHT22;32071;49.036;9.344;2023-03-29T11:16:09;14.90;93.90
46364;DHT22;32071;49.036;9.344;2023-03-29T11:21:43;15.00;94.80
46364;DHT22;32071;49.036;9.344;2023-03-29T11:24:37;14.90;95.20
46364;DHT22;32071;49.036;9.344;2023-03-29T11:27:31;14.80;96.90
46364;DHT22;32071;49.036;9.344;2023-03-29T11:30:07;14.90;95.40
46364;DHT22;32071;49.036;9.344;2023-03-29T11:32:47;15.10;96.40
46364;DHT22;32071;49.036;9.344;2023-03-29T11:38:29;15.40;94.50
46364;DHT22;32071;49.036;9.344;2023-03-29T11:43:44;15.70;97.00
46364;DHT22;32071;49.036;9.344;2023-03-29T11:46:27;15.90;94.80
46364;DHT22;32071;49.036;9.344;2023-03-29T11:51:38;15.90;94.30
46364;DHT22;32071;49.036;9.344;2023-03-29T11:54:32;15.70;95.70
46364;DHT22;32071;49.036;9.344;2023-03-29T11:57:06;15.60;95.40
46364;DHT22;32071;49.036;9.344;2023-03-29T11:59:40;15.70;96.60
46364;DHT22;32071;49.036;9.344;2023-03-29T12:04:55;15.80;95.70
46364;DHT22;32071;49.036;9.344;2023-03-29T12:07:31;16.10;96.80
46364;DHT22;32071;49.036;9.344;2023-03-29T12:10:04;16.20;96.10
46364;DHT22;32071;49.036;9.344;2023-03-29T12:13:09;16.30;96.10
46364;DHT22;32071;49.036;9.344;2023-03-29T12:15:41;16.50;95.30
46364;DHT22;32071;49.036;9.344;2023-03-29T12:18:19;16.50;95.00
46364;DHT22;32071;49.036;9.344;2023-03-29T12:20:50;16.60;96.00
46364;DHT22;32071;49.036;9.344;2023-03-29T12:23:17;16.50;94.40
46364;DHT22;32071;49.036;9.344;2023-03-29T12:26:06;16.50;93.90
46364;DHT22;32071;49.036;9.344;2023-03-29T12:28:47;16.50;93.90
46364;DHT22;32071;49.036;9.344;2023-03-29T12:37:08;16.70;94.00
46364;DHT22;32071;49.036;9.344;2023-03-29T12:39:37;16.70;94.00
46364;DHT22;32071;49.036;9.344;2023-03-29T12:42:21;16.60;94.60
46364;DHT22;32071;49.036;9.344;2023-03-29T12:44:56;16.70;94.50
46364;DHT22;32071;49.036;9.344;2023-03-29T12:47:25;16.70;94.90
46364;DHT22;32071;49.036;9.344;2023-03-29T12:49:57;16.90;94.90
46364;DHT22;32071;49.036;9.344;2023-03-29T12:52:29;16.90;94.00
46364;DHT22;32071;49.036;9.344;2023-03-29T12:55:04;16.60;94.20
46364;DHT22;32071;49.036;9.344;2023-03-29T12:57:41;16.40;93.20
46364;DHT22;32071;49.036;9.344;2023-03-29T13:00:26;16.50;93.80
46364;DHT22;32071;49.036;9.344;2023-03-29T13:03:03;16.80;95.10
46364;DHT22;32071;49.036;9.344;2023-03-29T13:05:34;16.80;94.00
46364;DHT22;32071;49.036;9.344;2023-03-29T13:08:21;16.70;94.60
46364;DHT22;32071;49.036;9.344;2023-03-29T13:10:54;16.50;94.50
46364;DHT22;32071;49.036;9.344;2023-03-29T13:13:27;16.80;94.50
46364;DHT22;32071;49.036;9.344;2023-03-29T13:15:54;17.20;94.60
46364;DHT22;32071;49.036;9.344;2023-03-29T13:18:35;17.30;94.20
46364;DHT22;32071;49.036;9.344;2023-03-29T13:21:13;17.40;94.40
46364;DHT22;32071;49.036;9.344;2023-03-29T13:26:40;17.90;94.60
46364;DHT22;32071;49.036;9.344;2023-03-29T13:35:01;18.70;91.60
46364;DHT22;32071;49.036;9.344;2023-03-29T13:37:46;18.30;92.40
46364;DHT22;32071;49.036;9.344;2023-03-29T13:41:10;17.80;92.60
46364;DHT22;32071;49.036;9.344;2023-03-29T13:43:53;17.40;93.80
46364;DHT22;32071;49.036;9.344;2023-03-29T13:48:59;16.80;93.30
46364;DHT22;32071;49.036;9.344;2023-03-29T13:51:35;16.70;92.60
46364;DHT22;32071;49.036;9.344;2023-03-29T13:54:15;16.40;93.60
46364;DHT22;32071;49.036;9.344;2023-03-29T14:02:29;16.00;95.00
46364;DHT22;32071;49.036;9.344;2023-03-29T14:04:56;16.00;95.10
46364;DHT22;32071;49.036;9.344;2023-03-29T14:07:26;15.90;96.00
46364;DHT22;32071;49.036;9.344;2023-03-29T14:09:54;16.00;96.10
46364;DHT22;32071;49.036;9.344;2023-03-29T14:12:21;16.00;95.10
46364;DHT22;32071;49.036;9.344;2023-03-29T14:14:47;15.90;94.80
46364;DHT22;32071;49.036;9.344;2023-03-29T14:17:20;15.90;95.20
46364;DHT22;32071;49.036;9.344;2023-03-29T14:19:46;15.80;95.90
46364;DHT22;32071;49.036;9.344;2023-03-29T14:22:15;15.80;96.70
46364;DHT22;32071;49.036;9.344;2023-03-29T14:24:47;15.80;96.20
46364;DHT22;32071;49.036;9.344;2023-03-29T14:27:14;15.70;96.20
46364;DHT22;32071;49.036;9.344;2023-03-29T14:29:40;15.70;96.00
46364;DHT22;32071;49.036;9.344;2023-03-29T14:32:13;15.70;96.80
46364;DHT22;32071;49.036;9.344;2023-03-29T14:34:41;15.80;96.30
46364;DHT22;32071;49.036;9.344;2023-03-29T14:37:10;15.70;96.30
46364;DHT22;32071;49.036;9.344;2023-03-29T14:39:37;15.60;97.40
46364;DHT22;32071;49.036;9.344;2023-03-29T14:42:11;15.50;97.50
46364;DHT22;32071;49.036;9.344;2023-03-29T14:44:38;15.30;97.60
46364;DHT22;32071;49.036;9.344;2023-03-29T14:47:04;15.20;97.30
46364;DHT22;32071;49.036;9.344;2023-03-29T14:49:30;15.20;97.90
46364;DHT22;32071;49.036;9.344;2023-03-29T14:51:56;15.20;98.20
46364;DHT22;32071;49.036;9.344;2023-03-29T14:54:30;15.00;99.30
46364;DHT22;32071;49.036;9.344;2023-03-29T14:56:57;14.90;99.90
46364;DHT22;32071;49.036;9.344;2023-03-29T14:59:42;14.80;99.90
46364;DHT22;32071;49.036;9.344;2023-03-29T15:02:31;14.80;99.90
46364;DHT22;32071;49.036;9.344;2023-03-29T15:04:59;14.80;99.90
46364;DHT22;32071;49.036;9.344;2023-03-29T15:07:28;14.80;99.90
46364;DHT22;32071;49.036;9.344;2023-03-29T15:09:56;14.90;99.90
46364;DHT22;32071;49.036;9.344;2023-03-29T15:12:22;15.00;99.90
46364;DHT22;32071;49.036;9.344;2023-03-29T15:14:51;15.10;99.90
46364;DHT22;32071;49.036;9.344;2023-03-29T15:19:56;15.30;99.90
46364;DHT22;32071;49.036;9.344;2023-03-29T15:22:22;15.30;99.90
46364;DHT22;32071;49.036;9.344;2023-03-29T15:24:48;15.20;99.90
46364;DHT22;32071;49.036;9.344;2023-03-29T15:27:16;15.20;99.90
46364;DHT22;32071;49.036;9.344;2023-03-29T15:29:43;15.20;99.90
46364;DHT22;32071;49.036;9.344;2023-03-29T15:32:21;15.20;99.90
46364;DHT22;32071;49.036;9.344;2023-03-29T15:37:42;15.30;99.90
46364;DHT22;32071;49.036;9.344;2023-03-29T15:40:14;15.20;99.90
46364;DHT22;32071;49.036;9.344;2023-03-29T15:42:39;15.20;99.90
46364;DHT22;32071;49.036;9.344;2023-03-29T15:45:05;15.10;99.90
46364;DHT22;32071;49.036;9.344;2023-03-29T15:47:31;15.20;99.90
46364;DHT22;32071;49.036;9.344;2023-03-29T15:49:57;15.20;99.90
46364;DHT22;32071;49.036;9.344;2023-03-29T15:52:22;15.20;99.90
46364;DHT22;32071;49.036;9.344;2023-03-29T15:54:48;15.10;99.90
46364;DHT22;32071;49.036;9.344;2023-03-29T15:57:14;15.10;99.90
46364;DHT22;32071;49.036;9.344;2023-03-29T15:59:42;15.10;99.90
46364;DHT22;32071;49.036;9.344;2023-03-29T16:02:21;15.10;99.90
46364;DHT22;32071;49.036;9.344;2023-03-29T16:04:48;15.10;99.90
46364;DHT22;32071;49.036;9.344;2023-03-29T16:07:15;15.20;99.90
46364;DHT22;32071;49.036;9.344;2023-03-29T16:09:42;15.20;99.90
46364;DHT22;32071;49.036;9.344;2023-03-29T16:12:09;15.20;99.90
46364;DHT22;32071;49.036;9.344;2023-03-29T16:14:35;15.20;99.90
46364;DHT22;32071;49.036;9.344;2023-03-29T16:17:01;15.20;99.90
46364;DHT22;32071;49.036;9.344;2023-03-29T16:19:28;15.10;99.90
46364;DHT22;32071;49.036;9.344;2023-03-29T16:21:55;15.20;99.90
46364;DHT22;32071;49.036;9.344;2023-03-29T16:24:27;15.10;99.90
46364;DHT22;32071;49.036;9.344;2023-03-29T16:26:54;15.10;99.90
46364;DHT22;32071;49.036;9.344;2023-03-29T16:29:21;15.00;99.90
46364;DHT22;32071;49.036;9.344;2023-03-29T16:31:48;15.00;99.90
46364;DHT22;32071;49.036;9.344;2023-03-29T16:34:14;15.10;99.90
46364;DHT22;32071;49.036;9.344;2023-03-29T16:36:40;15.20;99.90
46364;DHT22;32071;49.036;9.344;2023-03-29T16:39:08;15.10;99.90
46364;DHT22;32071;49.036;9.344;2023-03-29T16:41:35;15.10;99.90
46364;DHT22;32071;49.036;9.344;2023-03-29T16:44:02;15.10;99.90
46364;DHT22;32071;49.036;9.344;2023-03-29T16:46:28;15.10;99.90
46364;DHT22;32071;49.036;9.344;2023-03-29T16:48:53;15.10;99.90
46364;DHT22;32071;49.036;9.344;2023-03-29T16:51:19;15.10;99.90
46364;DHT22;32071;49.036;9.344;2023-03-29T16:53:46;15.00;99.90
46364;DHT22;32071;49.036;9.344;2023-03-29T16:56:16;14.90;99.90
46364;DHT22;32071;49.036;9.344;2023-03-29T16:58:42;14.90;99.90
46364;DHT22;32071;49.036;9.344;2023-03-29T17:01:14;14.80;99.90
46364;DHT22;32071;49.036;9.344;2023-03-29T17:03:40;14.70;99.90
46364;DHT22;32071;49.036;9.344;2023-03-29T17:06:07;14.70;99.90
46364;DHT22;32071;49.036;9.344;2023-03-29T17:08:33;14.60;99.90
46364;DHT22;32071;49.036;9.344;2023-03-29T17:11:00;14.60;99.90
46364;DHT22;32071;49.036;9.344;2023-03-29T17:13:26;14.50;99.90
46364;DHT22;32071;49.036;9.344;2023-03-29T17:15:53;14.40;99.90
46364;DHT22;32071;49.036;9.344;2023-03-29T17:18:20;14.30;99.90
46364;DHT22;32071;49.036;9.344;2023-03-29T17:20:46;14.30;99.90
46364;DHT22;32071;49.036;9.344;2023-03-29T17:23:11;14.20;99.90
46364;DHT22;32071;49.036;9.344;2023-03-29T17:25:37;14.10;99.90
46364;DHT22;32071;49.036;9.344;2023-03-29T17:28:02;14.10;99.90
46364;DHT22;32071;49.036;9.344;2023-03-29T17:30:28;14.00;99.90